Kisakata, Japan
Current Conditions -  °F | °C
As of 9:00 PM on Tuesday 21 Oct 2014 (Local Time) from RJSY Reporting Station
Rain Showers Rain Showers  
Wind Chill: 59°   Ceiling: 7000
Heat Index: 59°   Visibility: 6mi
Dew Point: 55°   Wind: 6mph
Humidity: 88%   Direction: 360°N
Pressure: 29.94"   Gusts: NA
Location:  39.22°N, 139.9°E
Report Text: RJSY 211200Z 36005KT 310V030 9999 -SHRA FEW020 SCT040 BKN070 15/13 Q1014
Loading
Personal Weather Stations






























Interactive Weather Map New forecast layout! Learn more

10-Day Weather Forecast

Advertisements
Track Severe Weather on mobile